EST,Max TemperatureF,Mean TemperatureF,Min TemperatureF,Max Dew PointF,MeanDew PointF,Min DewpointF,Max Humidity, Mean Humidity, Min Humidity, Max Sea Level PressureIn, Mean Sea Level PressureIn, Min Sea Level PressureIn, Max VisibilityMiles, Mean VisibilityMiles, Min VisibilityMiles, Max Wind SpeedMPH, Mean Wind SpeedMPH, Max Gust SpeedMPH,PrecipitationIn, CloudCover, Events, WindDirDegrees
2013-11-1,79,72,66,70,67,63,93,83,71,29.99,29.85,29.75,10,10,4,14,10,22,0.07,5,Rain,197
2013-11-2,72,67,59,69,62,48,97,88,54,29.91,29.75,29.69,10,9,2,15,9,22,0.50,5,Rain,260
2013-11-3,64,56,48,46,41,37,74,60,39,30.34,30.14,29.91,10,10,10,15,10,24,0.00,0,,354
2013-11-4,60,50,39,40,37,30,86,67,36,30.51,30.46,30.36,10,10,10,16,9,24,0.00,0,,12
2013-11-5,70,58,45,56,50,41,86,74,57,30.47,30.43,30.40,10,10,10,15,9,20,0.00,5,,27
2013-11-6,69,61,53,65,60,50,100,90,70,30.39,30.24,30.12,10,7,1,13,6,,0.07,6,Rain,31
2013-11-7,72,64,53,65,62,40,100,91,61,30.10,30.00,29.91,10,6,2,15,4,,0.16,7,Rain,322
2013-11-8,57,47,36,39,33,26,97,60,30,30.33,30.23,30.07,10,10,10,16,11,24,0.00,0,,344
2013-11-9,61,47,33,48,40,31,93,73,44,30.38,30.31,30.23,10,10,6,8,2,,0.00,1,,168
2013-11-10,69,56,44,47,42,36,97,66,32,30.24,30.17,30.09,10,10,7,10,5,,0.00,0,,256
2013-11-11,61,50,39,43,36,31,93,64,36,30.34,30.26,30.18,10,10,7,15,8,23,0.00,0,,23
2013-11-12,66,51,33,42,35,24,97,65,32,30.38,30.15,30.03,10,9,2,30,7,40,0.01,4,Snow,334
2013-11-13,45,36,27,30,23,16,89,64,31,30.51,30.44,30.36,10,9,2,23,13,33,0.00,2,Snow,346
2013-11-14,55,40,25,31,23,16,92,62,22,30.52,30.45,30.38,10,10,10,6,2,,0.00,0,,272
2013-11-15,66,49,32,58,44,30,97,76,48,30.39,30.31,30.24,10,10,7,13,2,,0.01,3,Rain,102
2013-11-16,72,64,55,62,59,55,100,94,66,30.26,30.22,30.20,10,3,0,9,2,,0.01,3,Fog,36
2013-11-17,75,64,54,67,58,54,100,92,62,30.21,30.13,29.98,10,5,0,13,4,21,0.03,7,Fog-Rain,13
2013-11-18,79,70,61,69,64,36,96,79,39,29.96,29.87,29.78,10,10,10,13,8,,0.01,5,Rain,257
2013-11-19,57,50,43,36,31,27,76,48,32,30.28,30.11,29.92,10,10,8,17,11,26,0.00,0,,10
2013-11-20,59,50,41,43,39,32,83,69,53,30.40,30.35,30.27,10,10,9,17,10,24,0.00,3,,18
2013-11-21,68,57,46,56,52,43,100,89,63,30.45,30.40,30.38,10,8,1,12,7,17,0.00,4,,46
2013-11-22,73,64,55,60,57,53,97,85,59,30.38,30.27,30.12,10,10,1,9,4,,0.00,6,,173
2013-11-23,64,58,48,63,56,31,97,88,50,30.11,30.06,30.02,10,9,2,17,7,22,0.00,7,Rain,333
2013-11-24,46,38,30,24,15,5,51,39,23,30.56,30.34,30.13,10,10,10,21,15,31,0.00,0,,347
2013-11-25,44,34,24,30,17,9,70,50,32,30.60,30.51,30.37,10,10,10,12,6,,0.00,0,,31
2013-11-26,72,56,39,68,60,33,97,92,75,30.35,29.91,29.65,10,4,1,24,11,34,1.50,7,Rain,145
2013-11-27,70,54,34,67,54,22,97,90,61,30.16,29.63,29.45,10,5,0,22,13,30,0.99,8,Fog-Rain-Thunderstorm,263
2013-11-28,45,36,28,30,22,17,92,63,35,30.51,30.40,30.18,10,10,10,14,8,20,0.00,0,,328
2013-11-29,54,41,28,30,27,24,92,64,32,30.61,30.55,30.50,10,10,10,13,4,,0.00,0,,19
2013-11-30,57,45,33,42,36,26,89,72,55,30.59,30.49,30.34,10,10,9,13,9,,0.00,2,Rain,11